Time;durP1;ratioP1;P1;durP2;ratioP2;P2;SDS_P1;SDS_P2;PMS_P1;PMS_P2;Temp;Humidity;BMP_temperature;BMP_pressure;BME280_temperature;BME280_humidity;BME280_pressure;Samples;Min_cycle;Max_cycle;Signal;HPM_P1;HPM_P2
2021/07/15 00:00:25;;;;;;;;;;;17.70;99.90;;;17.55;89.76;100530.84;4993871;28;20194;-63
2021/07/15 00:02:53;;;;;;;;;;;17.70;99.90;;;17.55;89.30;100516.38;4994145;28;20292;-63
2021/07/15 00:05:20;;;;;;;;;;;17.60;99.90;;;17.60;88.06;100513.44;4992850;28;20348;-62
2021/07/15 00:07:49;;;;;;;;;;;17.70;99.90;;;17.60;87.15;100516.16;4993766;28;19933;-63
2021/07/15 00:10:21;;;;;;;;;;;17.70;99.90;;;17.51;87.34;100510.75;4993103;28;19932;-63
2021/07/15 00:12:52;;;;;;;;;;;17.60;99.90;;;17.58;87.09;100507.47;4993954;28;19935;-64
2021/07/15 00:15:21;;;;;;;;;;;17.60;99.90;;;17.67;86.20;100506.22;4992962;28;19929;-63
2021/07/15 00:17:49;;;;;;;;;;;17.70;99.90;;;17.67;85.27;100508.94;4993831;28;19952;-63
2021/07/15 00:20:18;;;;;;;;;;;17.70;99.90;;;17.72;85.34;100494.25;4993442;28;19930;-63
2021/07/15 00:22:46;;;;;;;;;;;17.70;99.90;;;17.79;84.73;100497.19;4994081;28;19936;-63
2021/07/15 00:25:17;;;;;;;;;;;17.80;99.90;;;17.75;84.51;100488.88;4992864;28;19959;-63
2021/07/15 00:27:45;;;;;;;;;;;17.80;99.90;;;17.67;84.81;100494.47;4993615;28;19926;-63
2021/07/15 00:30:15;;;;;;;;;;;17.80;99.90;;;17.70;84.59;100491.06;4993469;28;19926;-62
2021/07/15 00:32:43;;;;;;;;;;;17.80;99.90;;;17.80;84.65;100483.19;4993448;28;19929;-62
2021/07/15 00:35:12;;;;;;;;;;;17.80;99.90;;;17.90;82.46;100476.44;4992823;28;19926;-63
2021/07/15 00:37:40;;;;;;;;;;;17.90;99.90;;;18.02;82.86;100476.41;4993420;28;19930;-62
2021/07/15 00:40:10;;;;;;;;;;;18.00;99.90;;;18.11;81.86;100473.50;4993287;28;19933;-63
2021/07/15 00:42:38;;;;;;;;;;;18.10;99.90;;;18.05;81.54;100467.50;4993336;28;20381;-62
2021/07/15 00:45:07;;;;;;;;;;;18.10;99.90;;;18.04;81.08;100474.09;4992529;28;19925;-63
2021/07/15 00:47:37;;;;;;;;;;;18.10;99.90;;;18.03;81.28;100467.81;4992659;28;19988;-63
2021/07/15 00:50:06;;;;;;;;;;;18.10;99.90;;;17.97;81.86;100471.16;4993399;28;19941;-64
2021/07/15 00:52:34;;;;;;;;;;;18.10;99.90;;;17.93;82.05;100465.56;4993206;28;20392;-63
2021/07/15 00:55:02;;;;;;;;;;;18.10;99.90;;;17.98;81.27;100465.34;4992452;28;19979;-63
2021/07/15 00:57:30;;;;;;;;;;;18.00;99.90;;;18.04;81.47;100460.41;4992412;28;19933;-63
2021/07/15 00:59:58;;;;;;;;;;;18.10;99.90;;;18.01;81.84;100455.63;4993215;28;19930;-63
2021/07/15 01:02:26;;;;;;;;;;;18.10;99.90;;;17.89;81.90;100450.22;4993254;28;19933;-63
2021/07/15 01:04:55;;;;;;;;;;;18.00;99.90;;;17.85;82.25;100454.78;4992433;28;19930;-63
2021/07/15 01:07:23;;;;;;;;;;;18.00;99.90;;;17.92;82.31;100455.78;4992273;28;19926;-63
2021/07/15 01:09:51;;;;;;;;;;;18.10;99.90;;;18.01;81.26;100450.16;4993101;28;19929;-63
2021/07/15 01:12:29;;;;;;;;;;;18.10;99.90;;;18.05;80.87;100451.06;4992924;28;19932;-63
2021/07/15 01:15:06;;;;;;;;;;;18.10;99.90;;;18.00;80.30;100454.03;4992390;28;19926;-63
2021/07/15 01:17:40;;;;;;;;;;;18.10;99.90;;;17.98;80.02;100448.94;4992500;28;19973;-63
2021/07/15 01:20:39;;;;;;;;;;;18.10;99.90;;;17.89;79.77;100453.75;4993138;28;19933;-63
2021/07/15 01:23:18;;;;;;;;;;;18.10;99.90;;;17.70;80.91;100450.03;4993764;28;19925;-63
2021/07/15 01:26:13;;;;;;;;;;;17.90;99.90;;;17.78;82.07;100454.59;4995985;28;19925;-62
2021/07/15 01:29:02;;;;;;;;;;;17.90;99.90;;;17.84;81.84;100443.03;4996457;28;19984;-63
2021/07/15 01:31:34;;;;;;;;;;;17.90;99.90;;;17.91;80.96;100442.44;4996715;28;19933;-63
2021/07/15 01:34:03;;;;;;;;;;;18.00;99.90;;;17.95;80.73;100446.09;4996762;28;19932;-63
2021/07/15 01:36:33;;;;;;;;;;;18.00;99.90;;;18.06;80.13;100435.44;4995422;28;19926;-62
2021/07/15 01:39:06;;;;;;;;;;;18.10;99.90;;;18.15;79.86;100425.16;4996331;28;19980;-63
2021/07/15 01:41:35;;;;;;;;;;;18.20;99.90;;;18.27;78.95;100431.34;4996499;28;19976;-63
2021/07/15 01:44:06;;;;;;;;;;;18.30;99.90;;;18.27;78.15;100425.88;4996666;28;20311;-63
2021/07/15 01:46:36;;;;;;;;;;;18.40;99.90;;;18.33;78.26;100427.19;4995344;28;19925;-62
2021/07/15 01:49:06;;;;;;;;;;;18.40;99.90;;;18.43;77.36;100417.69;4996358;28;19930;-63
2021/07/15 01:51:35;;;;;;;;;;;18.50;99.90;;;18.50;77.23;100409.69;4996330;28;19930;-63
2021/07/15 01:54:03;;;;;;;;;;;18.50;99.90;;;18.49;76.59;100414.38;4996244;28;19930;-63
2021/07/15 01:56:32;;;;;;;;;;;18.60;99.90;;;18.47;76.95;100413.91;4994947;28;19932;-63
2021/07/15 01:59:00;;;;;;;;;;;18.60;99.90;;;18.55;76.49;100414.88;4996053;28;19937;-62
2021/07/15 02:01:28;;;;;;;;;;;18.60;99.90;;;18.59;76.14;100417.72;4996283;28;20300;-63
2021/07/15 02:04:00;;;;;;;;;;;18.70;99.90;;;18.59;76.18;100407.56;4996339;28;19926;-64
2021/07/15 02:06:30;;;;;;;;;;;18.70;99.90;;;18.65;75.88;100403.41;4994973;28;19926;-63
2021/07/15 02:09:01;;;;;;;;;;;18.70;99.90;;;18.65;75.48;100403.41;4995772;28;19933;-63
2021/07/15 02:11:33;;;;;;;;;;;18.70;99.90;;;18.67;75.46;100416.75;4995828;28;19926;-62
2021/07/15 02:14:03;;;;;;;;;;;18.70;99.90;;;18.61;74.97;100409.94;4996176;28;19952;-64
2021/07/15 02:16:32;;;;;;;;;;;18.70;99.90;;;18.61;74.73;100407.19;4994545;28;19936;-62
2021/07/15 02:19:02;;;;;;;;;;;18.70;99.90;;;18.60;74.97;100405.63;4995651;28;19932;-62
2021/07/15 02:21:30;;;;;;;;;;;18.70;99.90;;;18.60;74.74;100400.16;4995787;28;19925;-64
2021/07/15 02:23:59;;;;;;;;;;;18.70;99.90;;;18.62;74.65;100401.38;4996080;28;19926;-63
2021/07/15 02:26:27;;;;;;;;;;;18.70;99.90;;;18.63;74.49;100402.19;4994480;28;19929;-63
2021/07/15 02:28:56;;;;;;;;;;;18.70;99.90;;;18.60;74.62;100397.41;4995724;28;19933;-63
2021/07/15 02:31:30;;;;;;;;;;;18.70;99.90;;;18.59;74.80;100398.56;4995697;28;19929;-64
2021/07/15 02:34:01;;;;;;;;;;;18.60;99.90;;;18.58;74.98;100395.03;4995139;28;20448;-64
2021/07/15 02:36:30;;;;;;;;;;;18.60;99.90;;;18.69;74.14;100393.34;4994455;28;19926;-64
2021/07/15 02:39:00;;;;;;;;;;;18.70;99.90;;;18.71;74.19;100399.28;4995375;28;19933;-62
2021/07/15 02:41:27;;;;;;;;;;;18.70;99.90;;;18.69;73.71;100398.03;4995393;28;19926;-63
2021/07/15 02:43:55;;;;;;;;;;;18.70;99.90;;;18.63;73.86;100393.97;4992726;28;20337;-63
2021/07/15 02:46:23;;;;;;;;;;;18.70;99.90;;;18.53;73.76;100392.56;4994240;28;19981;-63
2021/07/15 02:48:51;;;;;;;;;;;18.60;99.90;;;18.50;74.27;100388.59;4995204;28;20351;-63
2021/07/15 02:51:20;;;;;;;;;;;18.50;99.90;;;18.51;73.97;100389.38;4995365;28;19926;-63
2021/07/15 02:53:48;;;;;;;;;;;18.50;99.90;;;18.52;74.00;100388.22;4995124;28;19926;-62
2021/07/15 02:56:23;;;;;;;;;;;18.50;99.90;;;18.50;73.93;100391.31;4994028;28;19929;-64
2021/07/15 02:58:58;;;;;;;;;;;18.50;99.90;;;18.49;73.85;100392.47;4995032;28;19926;-62
2021/07/15 03:01:28;;;;;;;;;;;18.50;99.90;;;18.47;73.77;100392.00;4995438;28;19926;-62
2021/07/15 03:03:59;;;;;;;;;;;18.50;99.90;;;18.41;73.81;100387.94;4995105;28;19929;-63
2021/07/15 03:06:33;;;;;;;;;;;18.40;99.90;;;18.33;74.05;100385.38;4993872;28;20365;-62
2021/07/15 03:09:04;;;;;;;;;;;18.40;99.90;;;18.29;74.26;100379.81;4994623;28;19957;-63
2021/07/15 03:11:37;;;;;;;;;;;18.30;99.90;;;18.21;74.41;100377.22;4994984;28;19981;-63
2021/07/15 03:14:06;;;;;;;;;;;18.30;99.90;;;18.16;75.01;100386.47;4994772;28;19925;-64
2021/07/15 03:16:34;;;;;;;;;;;18.20;99.90;;;18.09;75.34;100378.06;4993564;28;20032;-63
2021/07/15 03:19:03;;;;;;;;;;;18.20;99.90;;;18.02;75.97;100386.09;4994608;28;20151;-63
2021/07/15 03:21:34;;;;;;;;;;;18.00;99.90;;;17.97;76.15;100381.66;4994601;28;19926;-63
2021/07/15 03:24:03;;;;;;;;;;;18.00;99.90;;;17.90;76.46;100380.69;4994746;28;20398;-63
2021/07/15 03:26:31;;;;;;;;;;;18.00;99.90;;;17.85;76.46;100383.66;4993405;28;19926;-63
2021/07/15 03:29:00;;;;;;;;;;;17.90;99.90;;;17.84;76.57;100376.63;4994426;28;19926;-62
2021/07/15 03:31:30;;;;;;;;;;;17.90;99.90;;;17.80;76.50;100384.72;4994558;28;19933;-63
2021/07/15 03:33:58;;;;;;;;;;;17.80;99.90;;;17.73;76.90;100379.03;4994213;28;20391;-63
2021/07/15 03:36:26;;;;;;;;;;;17.80;99.90;;;17.66;76.65;100383.53;4993299;28;19926;-62
2021/07/15 03:38:55;;;;;;;;;;;17.70;99.90;;;17.53;77.85;100380.00;4994194;28;20500;-62
2021/07/15 03:41:24;;;;;;;;;;;17.50;99.90;;;17.22;77.99;100374.38;4994352;28;19936;-63
2021/07/15 03:43:52;;;;;;;;;;;17.40;99.90;;;17.03;79.28;100374.19;4994126;28;19926;-64
2021/07/15 03:46:20;;;;;;;;;;;17.30;99.90;;;17.07;80.52;100372.34;4992233;28;19921;-64
2021/07/15 03:48:48;;;;;;;;;;;17.20;99.90;;;17.26;79.58;100378.03;4993937;28;19926;-63
2021/07/15 03:51:16;;;;;;;;;;;17.40;99.90;;;17.37;79.03;100377.19;4994305;28;19926;-62
2021/07/15 03:53:45;;;;;;;;;;;17.40;99.90;;;17.50;78.84;100383.44;4993896;28;20381;-64
2021/07/15 03:56:15;;;;;;;;;;;17.50;99.90;;;17.51;77.99;100371.34;4992988;28;19933;-63
2021/07/15 03:58:45;;;;;;;;;;;17.50;99.90;;;17.49;77.71;100373.63;4993684;28;19933;-62
2021/07/15 04:01:13;;;;;;;;;;;17.50;99.90;;;17.44;77.90;100366.50;4994136;28;20313;-63
2021/07/15 04:03:42;;;;;;;;;;;17.50;99.90;;;17.37;78.11;100366.28;4993851;28;19925;-62
2021/07/15 04:06:11;;;;;;;;;;;17.40;99.90;;;17.33;77.83;100370.03;4992810;28;19941;-62
2021/07/15 04:08:43;;;;;;;;;;;17.40;99.90;;;17.25;78.44;100360.84;4993494;28;19933;-63
2021/07/15 04:11:11;;;;;;;;;;;17.30;99.90;;;17.24;78.65;100372.91;4993947;28;19926;-62
2021/07/15 04:13:42;;;;;;;;;;;17.30;99.90;;;17.14;78.65;100367.13;4993517;28;19937;-63
2021/07/15 04:16:19;;;;;;;;;;;17.20;99.90;;;17.00;78.85;100367.47;4992844;28;20344;-63
2021/07/15 04:18:47;;;;;;;;;;;17.10;99.90;;;16.91;79.33;100377.72;4993913;28;19926;-63
2021/07/15 04:21:15;;;;;;;;;;;17.00;99.90;;;16.84;80.03;100380.25;4993790;28;20289;-65
2021/07/15 04:23:44;;;;;;;;;;;16.90;99.90;;;16.69;80.76;100380.91;4993396;28;19926;-65
2021/07/15 04:26:12;;;;;;;;;;;16.80;99.90;;;16.70;81.52;100382.50;4992362;28;19930;-65
2021/07/15 04:28:41;;;;;;;;;;;16.80;99.90;;;16.68;81.41;100382.84;4993648;28;19929;-64
2021/07/15 04:31:28;;;;;;;;;;;16.80;99.90;;;16.73;81.79;100390.00;4993584;28;19929;-64
2021/07/15 04:33:57;;;;;;;;;;;16.80;99.90;;;16.67;80.97;100392.19;4993246;28;19930;-65
2021/07/15 04:36:26;;;;;;;;;;;16.80;99.90;;;16.58;81.25;100391.50;4992367;28;19929;-63
2021/07/15 04:38:53;;;;;;;;;;;16.70;99.90;;;16.51;81.52;100399.41;4993430;28;19929;-64
2021/07/15 04:41:22;;;;;;;;;;;16.60;99.90;;;16.54;82.81;100404.22;4993501;28;19925;-64
2021/07/15 04:43:52;;;;;;;;;;;16.60;99.90;;;16.69;83.89;100395.34;4993123;28;19945;-63
2021/07/15 04:46:21;;;;;;;;;;;16.80;99.90;;;16.80;83.84;100401.97;4992437;28;19952;-63
2021/07/15 04:48:48;;;;;;;;;;;16.90;99.90;;;16.94;83.10;100401.63;4993203;28;20364;-65
2021/07/15 04:51:17;;;;;;;;;;;17.00;99.90;;;16.83;82.02;100401.28;4993443;28;20369;-63
2021/07/15 04:53:46;;;;;;;;;;;17.00;99.90;;;16.79;82.69;100402.31;4993158;28;19976;-64
2021/07/15 04:56:15;;;;;;;;;;;16.90;99.90;;;16.68;82.01;100406.63;4992083;28;19952;-64
2021/07/15 04:58:43;;;;;;;;;;;16.90;99.90;;;16.54;82.95;100406.94;4993183;28;19926;-63
2021/07/15 05:01:12;;;;;;;;;;;16.80;99.90;;;16.57;83.00;100402.72;4993327;28;19926;-64
2021/07/15 05:03:40;;;;;;;;;;;16.70;99.90;;;16.64;83.41;100408.44;4993135;28;20373;-64
2021/07/15 05:06:10;;;;;;;;;;;16.70;99.90;;;16.59;82.78;100400.47;4991948;28;20369;-64
2021/07/15 05:08:39;;;;;;;;;;;16.70;99.90;;;16.41;83.14;100399.84;4992952;28;20336;-64
2021/07/15 05:11:08;;;;;;;;;;;16.60;99.90;;;16.40;83.31;100400.97;4993077;28;19925;-64
2021/07/15 05:13:37;;;;;;;;;;;16.50;99.90;;;16.37;83.70;100399.72;4993018;28;19980;-64
2021/07/15 05:16:06;;;;;;;;;;;16.50;99.90;;;16.29;85.05;100400.59;4991846;28;19937;-64
2021/07/15 05:18:36;;;;;;;;;;;;;;;16.37;85.43;100399.72;4993115;28;19936;-64
2021/07/15 05:21:04;;;;;;;;;;;16.50;99.90;;;16.54;84.78;100400.66;4993079;28;20297;-64
2021/07/15 05:23:32;;;;;;;;;;;16.60;99.90;;;16.68;83.48;100398.44;4993142;28;20361;-64
2021/07/15 05:26:00;;;;;;;;;;;16.70;99.90;;;16.81;83.12;100394.59;4991614;28;20389;-63
2021/07/15 05:28:28;;;;;;;;;;;16.80;99.90;;;16.92;81.95;100399.25;4993038;28;19948;-64
2021/07/15 05:30:55;;;;;;;;;;;17.00;99.90;;;16.99;81.72;100397.88;4992987;28;19926;-64
2021/07/15 05:33:24;;;;;;;;;;;17.00;99.90;;;17.05;81.05;100402.75;4993125;28;19930;-63
2021/07/15 05:35:53;;;;;;;;;;;17.10;99.90;;;17.11;81.28;100400.59;4991411;28;19934;-65
2021/07/15 05:38:21;;;;;;;;;;;17.20;99.90;;;17.13;80.89;100393.66;4993025;28;19925;-64
2021/07/15 05:40:49;;;;;;;;;;;17.20;99.90;;;17.18;80.81;100398.88;4992740;28;19925;-63
2021/07/15 05:43:16;;;;;;;;;;;17.20;99.90;;;17.42;79.90;100400.75;4992802;28;19926;-64
2021/07/15 05:45:44;;;;;;;;;;;17.40;99.90;;;17.70;78.94;100403.56;4991663;28;19941;-64
2021/07/15 05:48:12;;;;;;;;;;;17.60;99.90;;;18.31;76.47;100407.59;4992517;28;19932;-64
2021/07/15 05:50:40;;;;;;;;;;;;;;;18.96;73.96;100400.66;4992800;28;19930;-64
2021/07/15 05:53:09;;;;;;;;;;;18.80;99.90;;;19.63;70.87;100393.97;4992687;28;19926;-64
2021/07/15 05:55:37;;;;;;;;;;;19.60;99.90;;;20.19;68.83;100390.72;4991638;28;19976;-64
2021/07/15 05:58:05;;;;;;;;;;;20.20;99.90;;;20.78;66.14;100397.66;4992634;28;19925;-64
2021/07/15 06:00:32;;;;;;;;;;;20.80;99.90;;;21.45;63.25;100393.19;4992770;28;19951;-64
2021/07/15 06:03:00;;;;;;;;;;;21.60;99.90;;;21.78;62.06;100385.75;4992771;28;19930;-65
2021/07/15 06:05:30;;;;;;;;;;;22.00;99.90;;;22.20;61.04;100384.66;4991783;28;19932;-64
2021/07/15 06:07:58;;;;;;;;;;;22.40;99.90;;;23.21;57.58;100380.38;4992432;28;19996;-64
2021/07/15 06:10:28;;;;;;;;;;;23.20;99.90;;;24.22;54.74;100375.69;4995660;28;19930;-64
2021/07/15 06:12:56;;;;;;;;;;;24.10;99.90;;;25.15;52.23;100377.28;4996027;28;19926;-64
2021/07/15 06:15:24;;;;;;;;;;;25.00;99.90;;;25.87;49.79;100371.88;4995036;28;19925;-64
2021/07/15 06:17:52;;;;;;;;;;;25.80;99.90;;;26.51;47.87;100377.84;4995816;28;20376;-65
2021/07/15 06:20:20;;;;;;;;;;;26.50;99.90;;;27.26;46.50;100374.41;4995942;28;19930;-64
2021/07/15 06:22:48;;;;;;;;;;;27.30;99.90;;;28.05;44.98;100365.53;4995929;28;20300;-64
2021/07/15 06:25:16;;;;;;;;;;;28.10;99.90;;;28.67;43.71;100367.72;4994959;28;19926;-64
2021/07/15 06:27:46;;;;;;;;;;;28.70;99.90;;;29.27;41.59;100363.88;4995265;28;19932;-64
2021/07/15 06:30:15;;;;;;;;;;;29.30;99.90;;;29.95;40.60;100357.69;4995776;28;19932;-64
2021/07/15 06:32:42;;;;;;;;;;;30.00;99.90;;;30.39;38.76;100361.09;4995850;28;19929;-64
2021/07/15 06:35:11;;;;;;;;;;;30.60;99.90;;;30.79;38.10;100357.66;4994782;28;19926;-65
2021/07/15 06:37:40;;;;;;;;;;;31.10;99.90;;;31.15;37.34;100365.94;4994810;28;19938;-64
2021/07/15 06:40:10;;;;;;;;;;;31.60;99.90;;;31.51;36.76;100357.34;4995640;28;19932;-65
2021/07/15 06:42:38;;;;;;;;;;;32.00;99.90;;;32.06;36.21;100364.50;4995657;28;19937;-65
2021/07/15 06:45:09;;;;;;;;;;;32.60;99.90;;;32.58;36.04;100363.25;4994603;28;19929;-65
2021/07/15 06:47:38;;;;;;;;;;;33.20;99.90;;;32.94;35.57;100370.00;4994535;28;19933;-64
2021/07/15 06:50:07;;;;;;;;;;;33.60;99.90;;;33.28;34.72;100372.03;4995387;28;20309;-64
2021/07/15 06:52:35;;;;;;;;;;;34.20;99.90;;;33.48;34.70;100374.47;4995363;28;19981;-65
2021/07/15 06:55:04;;;;;;;;;;;34.50;99.90;;;33.61;34.09;100375.22;4994437;28;19936;-64
2021/07/15 06:57:33;;;;;;;;;;;34.90;99.60;;;33.77;34.22;100377.84;4994424;28;19925;-64
2021/07/15 07:00:01;;;;;;;;;;;35.40;99.40;;;33.63;33.95;100378.34;4995126;28;20369;-64
2021/07/15 07:02:30;;;;;;;;;;;35.70;98.70;;;33.20;34.62;100386.72;4995123;28;19934;-64
2021/07/15 07:04:58;;;;;;;;;;;35.60;98.50;;;33.18;35.25;100386.41;4994712;28;20426;-63
2021/07/15 07:07:26;;;;;;;;;;;35.80;98.60;;;32.96;35.78;100387.13;4994136;28;19980;-64
2021/07/15 07:09:54;;;;;;;;;;;35.90;98.50;;;32.18;36.90;100393.72;4995222;28;19933;-64
2021/07/15 07:12:22;;;;;;;;;;;35.60;99.80;;;30.85;39.29;100405.41;4994963;28;19980;-64
2021/07/15 07:14:50;;;;;;;;;;;;;;;30.00;41.86;100401.81;4994389;28;20439;-64
2021/07/15 07:17:17;;;;;;;;;;;33.20;99.90;;;29.57;43.16;100403.88;4994076;28;19926;-64
2021/07/15 07:19:47;;;;;;;;;;;32.10;99.90;;;29.44;43.65;100411.31;4994756;28;19929;-65
2021/07/15 07:22:15;;;;;;;;;;;31.30;99.90;;;29.12;43.49;100415.44;4995050;28;19929;-65
2021/07/15 07:24:42;;;;;;;;;;;30.70;99.90;;;28.68;46.00;100424.16;4994195;28;20421;-65
2021/07/15 07:27:10;;;;;;;;;;;29.90;99.90;;;28.43;46.87;100418.16;4993869;28;19983;-64
2021/07/15 07:29:38;;;;;;;;;;;29.30;99.90;;;28.28;47.00;100430.72;4994562;28;19933;-64
2021/07/15 07:32:06;;;;;;;;;;;29.00;99.90;;;28.21;47.28;100435.16;4994624;28;19948;-64
2021/07/15 07:34:34;;;;;;;;;;;28.80;99.90;;;27.99;48.91;100433.88;4994277;28;19934;-65
2021/07/15 07:37:03;;;;;;;;;;;28.80;99.90;;;27.83;49.67;100432.88;4993451;28;19992;-64
2021/07/15 07:39:31;;;;;;;;;;;28.40;99.90;;;27.74;50.07;100441.72;4994318;28;19926;-64
2021/07/15 07:41:59;;;;;;;;;;;28.30;99.90;;;27.75;50.01;100436.94;4994608;28;19929;-64
2021/07/15 07:44:27;;;;;;;;;;;28.20;99.90;;;27.83;49.94;100430.88;4994302;28;19953;-64
2021/07/15 07:46:54;;;;;;;;;;;28.20;99.90;;;27.88;49.26;100433.19;4992967;28;19926;-64
2021/07/15 07:49:22;;;;;;;;;;;28.30;99.90;;;27.87;48.70;100437.19;4994240;28;20365;-64
2021/07/15 07:51:50;;;;;;;;;;;28.20;99.90;;;27.91;48.92;100439.91;4994453;28;19926;-64
2021/07/15 07:54:19;;;;;;;;;;;28.20;99.90;;;28.02;49.08;100438.59;4994142;28;19933;-64
2021/07/15 07:56:47;;;;;;;;;;;28.30;99.90;;;28.19;48.53;100437.59;4992792;28;19926;-64
2021/07/15 07:59:14;;;;;;;;;;;28.50;99.90;;;28.36;46.98;100440.53;4994141;28;20369;-64
2021/07/15 08:01:42;;;;;;;;;;;28.60;99.90;;;28.49;45.48;100433.16;4993978;28;20245;-65
2021/07/15 08:04:10;;;;;;;;;;;28.80;99.90;;;28.77;45.28;100429.97;4994082;28;19930;-64
2021/07/15 08:06:38;;;;;;;;;;;29.00;99.90;;;28.94;45.46;100434.44;4992782;28;19930;-64
2021/07/15 08:09:06;;;;;;;;;;;;;;;29.11;45.42;100430.59;4993617;28;19933;-65
2021/07/15 08:11:35;;;;;;;;;;;29.50;99.90;;;29.04;43.27;100436.28;4993952;28;20281;-64
2021/07/15 08:14:03;;;;;;;;;;;29.60;99.90;;;29.18;43.11;100438.78;4993942;28;20104;-64
2021/07/15 08:16:31;;;;;;;;;;;29.60;99.90;;;29.41;43.20;100431.66;4992544;28;20012;-64
2021/07/15 08:18:59;;;;;;;;;;;29.80;99.90;;;29.51;43.18;100436.25;4993798;28;20065;-65
2021/07/15 08:21:26;;;;;;;;;;;29.90;99.90;;;29.59;42.39;100434.88;4993673;28;19984;-64
2021/07/15 08:23:56;;;;;;;;;;;;;;;29.72;42.29;100436.63;4993752;28;19959;-64
2021/07/15 08:26:23;;;;;;;;;;;30.30;99.90;;;29.81;41.53;100436.03;4992395;28;19980;-64
2021/07/15 08:28:52;;;;;;;;;;;30.30;99.90;;;29.98;40.82;100432.09;4993363;28;19980;-64
2021/07/15 08:31:20;;;;;;;;;;;30.50;99.90;;;30.01;40.67;100434.03;4993144;28;20443;-64
2021/07/15 08:33:48;;;;;;;;;;;30.50;99.90;;;30.18;40.86;100430.09;4993475;28;20351;-64
2021/07/15 08:36:15;;;;;;;;;;;30.60;99.90;;;30.27;40.48;100435.88;4992143;28;19929;-64
2021/07/15 08:38:43;;;;;;;;;;;30.70;99.90;;;30.39;40.70;100436.41;4993217;28;20377;-65
2021/07/15 08:41:11;;;;;;;;;;;30.80;99.90;;;30.62;39.45;100430.69;4993573;28;19926;-64
2021/07/15 08:43:39;;;;;;;;;;;31.00;99.90;;;30.59;39.59;100423.19;4993413;28;19929;-64
2021/07/15 08:46:09;;;;;;;;;;;31.20;99.90;;;30.55;39.68;100425.28;4991952;28;20352;-65
2021/07/15 08:48:37;;;;;;;;;;;31.20;99.90;;;30.59;39.56;100431.56;4992898;28;19926;-64
2021/07/15 08:51:04;;;;;;;;;;;31.20;99.90;;;30.82;38.55;100431.41;4993306;28;19957;-65
2021/07/15 08:53:35;;;;;;;;;;;31.40;99.90;;;30.76;38.15;100425.53;4993390;28;19932;-64
2021/07/15 08:58:48;;;;;;;;;;;31.30;99.90;;;30.48;38.52;100425.44;4993301;28;19937;-64
2021/07/15 09:01:18;;;;;;;;;;;31.10;99.90;;;30.28;38.02;100419.88;4993254;28;19925;-64
2021/07/15 09:03:45;;;;;;;;;;;30.90;99.90;;;30.23;38.48;100424.00;4993297;28;19926;-64
2021/07/15 09:06:14;;;;;;;;;;;30.80;99.90;;;30.44;37.65;100431.09;4991881;28;19929;-64
2021/07/15 09:08:42;;;;;;;;;;;30.90;99.90;;;30.58;36.55;100430.75;4992712;28;19926;-65
2021/07/15 09:11:10;;;;;;;;;;;31.10;99.90;;;30.76;36.48;100430.34;4993169;28;19980;-64
2021/07/15 09:13:37;;;;;;;;;;;;;;;30.87;36.90;100420.47;4993054;28;19930;-64
2021/07/15 09:16:12;;;;;;;;;;;31.50;99.90;;;30.93;37.05;100423.53;4991719;28;19925;-64
2021/07/15 09:18:57;;;;;;;;;;;31.50;99.90;;;30.99;35.87;100421.00;4992874;28;19976;-64
2021/07/15 09:21:26;;;;;;;;;;;31.60;99.90;;;31.08;35.87;100419.19;4993172;28;19930;-64
2021/07/15 09:23:54;;;;;;;;;;;31.70;99.90;;;31.27;35.63;100420.28;4992814;28;19929;-65
2021/07/15 09:26:22;;;;;;;;;;;31.80;99.90;;;31.22;35.66;100421.56;4991667;28;19997;-64
2021/07/15 09:28:49;;;;;;;;;;;31.80;99.90;;;31.19;35.60;100422.47;4992772;28;20328;-66
2021/07/15 09:31:23;;;;;;;;;;;31.80;99.90;;;31.05;36.11;100420.06;4992875;28;20424;-64
2021/07/15 09:33:51;;;;;;;;;;;;;;;31.05;35.34;100422.84;4993001;28;19933;-64
2021/07/15 09:36:22;;;;;;;;;;;31.60;99.70;;;31.11;34.89;100418.28;4991233;28;19964;-64
2021/07/15 09:38:49;;;;;;;;;;;31.70;99.70;;;30.83;35.84;100424.56;4992790;28;19983;-65
2021/07/15 09:41:19;;;;;;;;;;;31.50;99.90;;;30.85;35.98;100422.16;4992995;28;19937;-65
2021/07/15 09:43:47;;;;;;;;;;;31.40;99.90;;;30.65;37.13;100435.38;4993629;28;20464;-64
2021/07/15 09:46:21;;;;;;;;;;;31.20;99.90;;;30.81;36.59;100438.19;4995024;28;19929;-66
2021/07/15 09:48:50;;;;;;;;;;;31.30;99.90;;;30.91;36.64;100436.38;4996167;28;19953;-64
2021/07/15 09:51:20;;;;;;;;;;;31.40;99.90;;;30.84;36.18;100437.31;4996428;28;19996;-65
2021/07/15 09:53:49;;;;;;;;;;;31.40;99.90;;;30.94;37.07;100427.94;4996540;28;20377;-65
2021/07/15 09:56:18;;;;;;;;;;;;;;;31.02;36.33;100442.47;4995078;28;20361;-64
2021/07/15 09:58:47;;;;;;;;;;;31.50;99.90;;;30.62;36.57;100447.44;4996354;28;19926;-65
2021/07/15 10:01:16;;;;;;;;;;;31.30;99.90;;;30.49;37.18;100449.34;4996235;28;19933;-66
2021/07/15 10:03:45;;;;;;;;;;;31.10;99.90;;;30.39;37.56;100451.16;4996184;28;19930;-64
2021/07/15 10:06:14;;;;;;;;;;;31.00;99.90;;;30.44;36.75;100449.84;4995148;28;19926;-65
2021/07/15 10:08:44;;;;;;;;;;;30.90;99.90;;;30.37;38.10;100455.59;4996017;28;20288;-65
2021/07/15 10:11:20;;;;;;;;;;;30.90;99.90;;;30.42;37.75;100455.09;4996214;28;19925;-64
2021/07/15 10:13:49;;;;;;;;;;;30.90;99.90;;;30.35;38.14;100451.22;4996176;28;19980;-64
2021/07/15 10:16:17;;;;;;;;;;;30.80;99.90;;;30.33;38.40;100448.06;4994615;28;19976;-64
2021/07/15 10:18:49;;;;;;;;;;;30.80;99.90;;;30.54;38.18;100448.81;4995928;28;19929;-64
2021/07/15 10:21:17;;;;;;;;;;;31.00;99.90;;;30.45;37.34;100457.00;4995909;28;19925;-66
2021/07/15 10:23:47;;;;;;;;;;;30.90;99.90;;;30.11;38.49;100458.13;4995246;28;19926;-65
2021/07/15 10:26:15;;;;;;;;;;;30.70;99.90;;;30.00;38.82;100465.16;4994647;28;19925;-64
2021/07/15 10:28:45;;;;;;;;;;;30.50;99.90;;;30.07;38.41;100465.78;4995722;28;20515;-65
2021/07/15 10:31:14;;;;;;;;;;;30.50;99.90;;;29.97;39.54;100463.22;4995636;28;20368;-64
2021/07/15 10:33:43;;;;;;;;;;;30.40;99.90;;;29.90;39.78;100469.72;4995648;28;19929;-65
2021/07/15 10:36:11;;;;;;;;;;;30.40;99.90;;;29.88;39.66;100461.00;4994289;28;19925;-64
2021/07/15 10:38:40;;;;;;;;;;;30.30;99.90;;;29.72;39.36;100467.28;4995738;28;19926;-64
2021/07/15 10:41:10;;;;;;;;;;;30.20;99.90;;;29.54;40.05;100466.03;4995358;28;19925;-64
2021/07/15 10:43:39;;;;;;;;;;;30.10;99.90;;;29.37;40.23;100462.34;4995795;28;20304;-65
2021/07/15 10:46:07;;;;;;;;;;;29.80;99.90;;;29.32;40.68;100460.06;4994175;28;19933;-64
2021/07/15 10:48:36;;;;;;;;;;;29.70;99.90;;;29.40;41.13;100455.16;4995257;28;19997;-64
2021/07/15 10:51:05;;;;;;;;;;;29.70;99.90;;;29.38;41.16;100455.59;4995270;28;19949;-65
2021/07/15 10:53:35;;;;;;;;;;;29.70;99.90;;;29.33;40.87;100469.22;4995311;28;19926;-64
2021/07/15 10:56:03;;;;;;;;;;;29.70;99.90;;;29.36;40.98;100468.38;4993516;28;19926;-65
2021/07/15 10:58:49;;;;;;;;;;;29.70;99.90;;;29.55;40.63;100468.38;4995058;28;20439;-65
2021/07/15 11:01:40;;;;;;;;;;;29.80;99.90;;;29.60;40.16;100472.69;4995037;28;19933;-64
2021/07/15 11:04:09;;;;;;;;;;;30.00;99.90;;;29.51;40.20;100462.13;4995175;28;20061;-64
2021/07/15 11:06:39;;;;;;;;;;;29.90;99.90;;;29.38;40.77;100468.72;4993667;28;20337;-64
2021/07/15 11:09:10;;;;;;;;;;;29.80;99.90;;;29.58;40.82;100461.16;4995097;28;19929;-64
2021/07/15 11:11:42;;;;;;;;;;;29.90;99.90;;;29.69;41.04;100465.34;4994950;28;20304;-65
2021/07/15 11:14:38;;;;;;;;;;;30.10;99.90;;;29.77;41.11;100457.59;4995008;28;20381;-64
2021/07/15 11:17:28;;;;;;;;;;;30.10;99.90;;;29.56;41.53;100458.03;4993969;28;19930;-65
2021/07/15 11:20:11;;;;;;;;;;;30.00;99.90;;;29.66;41.41;100468.19;4994746;28;19930;-64
2021/07/15 11:22:50;;;;;;;;;;;30.00;99.90;;;29.42;41.27;100464.69;4994868;28;19926;-64
2021/07/15 11:25:20;;;;;;;;;;;29.90;99.90;;;29.42;41.56;100467.47;4994076;28;19969;-65